createdAt,value
2019-03-10T00:00:29.283Z,76.66
2019-03-10T00:02:58.825Z,76.61
2019-03-10T00:05:28.320Z,76.62
2019-03-10T00:07:57.993Z,76.72
2019-03-10T00:10:27.523Z,76.94
2019-03-10T00:12:57.026Z,77.13
2019-03-10T00:15:26.526Z,77.10
2019-03-10T00:17:56.054Z,77.07
2019-03-10T00:20:25.957Z,77.11
2019-03-10T00:22:55.532Z,77.39
2019-03-10T00:25:25.040Z,77.64
2019-03-10T00:27:54.539Z,77.82
2019-03-10T00:30:24.054Z,77.99
2019-03-10T00:32:53.636Z,78.02
2019-03-10T00:35:23.317Z,77.95
2019-03-10T00:37:52.828Z,77.89
2019-03-10T00:41:01.756Z,77.87
2019-03-10T00:44:16.708Z,77.94
2019-03-10T00:47:07.555Z,77.83
2019-03-10T00:50:13.207Z,77.81
2019-03-10T00:52:47.905Z,77.92
2019-03-10T00:55:17.407Z,77.85
2019-03-10T00:57:47.326Z,77.84
2019-03-10T01:00:18.878Z,78.02
2019-03-10T01:02:48.378Z,78.18
2019-03-10T01:05:18.375Z,78.30
2019-03-10T01:07:48.386Z,78.48
2019-03-10T01:10:18.348Z,78.56
2019-03-10T01:12:48.286Z,78.66
2019-03-10T01:15:17.844Z,78.86
2019-03-10T01:17:49.911Z,78.97
2019-03-10T01:20:19.503Z,79.09
2019-03-10T01:22:49.146Z,79.17
2019-03-10T01:25:18.738Z,79.32
2019-03-10T01:27:48.240Z,79.54
2019-03-10T01:30:20.680Z,79.82
2019-03-10T01:33:15.355Z,80.01
2019-03-10T01:35:44.889Z,80.08
2019-03-10T01:38:14.404Z,80.11
2019-03-10T01:40:43.925Z,80.20
2019-03-10T01:43:13.430Z,80.39
2019-03-10T01:45:43.703Z,80.50
2019-03-10T01:48:13.225Z,80.67
2019-03-10T01:50:42.731Z,80.85
2019-03-10T01:53:13.816Z,80.99
2019-03-10T01:55:43.321Z,80.88
2019-03-10T01:58:12.818Z,80.54
2019-03-10T02:00:42.354Z,80.12
2019-03-10T02:03:11.858Z,80.00
2019-03-10T02:05:41.378Z,80.23
2019-03-10T02:08:10.880Z,80.47
2019-03-10T02:10:40.392Z,80.66
2019-03-10T02:13:09.912Z,80.84
2019-03-10T02:15:39.416Z,81.02
2019-03-10T02:18:08.927Z,81.22
2019-03-10T02:20:38.426Z,81.33
2019-03-10T02:23:07.940Z,81.35
2019-03-10T02:25:37.471Z,81.42
2019-03-10T02:28:06.968Z,81.52
2019-03-10T02:30:36.488Z,81.59
2019-03-10T02:33:06.001Z,81.64
2019-03-10T02:35:35.515Z,81.75
2019-03-10T02:38:05.029Z,81.86
2019-03-10T02:40:34.553Z,81.86
2019-03-10T02:43:04.073Z,81.97
2019-03-10T02:45:33.644Z,82.11
2019-03-10T02:48:03.169Z,82.14
2019-03-10T02:50:32.659Z,82.15
2019-03-10T02:53:02.194Z,82.18
2019-03-10T02:55:31.705Z,82.03
2019-03-10T02:58:01.602Z,81.93
2019-03-10T03:00:31.154Z,81.94
2019-03-10T03:03:00.653Z,81.95
2019-03-10T03:05:30.172Z,81.98
2019-03-10T03:07:59.676Z,81.94
2019-03-10T03:10:29.270Z,81.92
2019-03-10T03:12:58.764Z,81.88
2019-03-10T03:15:28.270Z,81.78
2019-03-10T03:17:57.785Z,81.72
2019-03-10T03:20:27.292Z,81.81
2019-03-10T03:22:56.812Z,81.79
2019-03-10T03:25:26.610Z,81.82
2019-03-10T03:27:56.421Z,81.84
2019-03-10T03:30:25.929Z,81.79
2019-03-10T03:32:55.443Z,81.69
2019-03-10T03:35:49.435Z,81.58
2019-03-10T03:38:26.541Z,81.51
2019-03-10T03:41:09.746Z,81.49
2019-03-10T03:43:39.252Z,81.58
2019-03-10T03:46:08.786Z,81.56
2019-03-10T03:48:38.283Z,81.62
2019-03-10T03:51:07.794Z,81.73
2019-03-10T03:53:37.336Z,81.93
2019-03-10T03:56:06.878Z,82.05
2019-03-10T03:58:36.411Z,82.20
2019-03-10T04:01:07.712Z,82.24
2019-03-10T04:03:37.230Z,82.35
2019-03-10T04:06:06.829Z,82.42
2019-03-10T04:08:36.318Z,82.67
2019-03-10T04:11:05.842Z,82.92
2019-03-10T04:13:35.351Z,83.06
2019-03-10T04:16:04.937Z,83.19
2019-03-10T04:18:34.455Z,83.27
2019-03-10T04:21:03.988Z,83.40
2019-03-10T04:23:33.540Z,83.51
2019-03-10T04:26:03.015Z,83.58
2019-03-10T04:28:32.519Z,83.71
2019-03-10T04:31:02.302Z,83.78
2019-03-10T04:33:31.793Z,83.78
2019-03-10T04:36:01.319Z,83.91
2019-03-10T04:38:30.824Z,84.03
2019-03-10T04:41:00.321Z,84.05
2019-03-10T04:43:29.834Z,84.00
2019-03-10T04:45:59.341Z,84.03
2019-03-10T04:48:28.858Z,84.13
2019-03-10T04:50:58.354Z,84.15
2019-03-10T04:53:27.981Z,84.19
2019-03-10T04:56:01.587Z,84.28
2019-03-10T04:58:32.326Z,84.37
2019-03-10T05:01:01.844Z,84.32
2019-03-10T05:03:31.344Z,84.24
2019-03-10T05:06:00.856Z,84.17
2019-03-10T05:08:30.369Z,84.11
2019-03-10T05:10:59.883Z,84.03
2019-03-10T05:13:29.379Z,83.94
2019-03-10T05:15:58.896Z,83.91
2019-03-10T05:18:28.406Z,83.99
2019-03-10T05:20:57.930Z,84.14
2019-03-10T05:23:39.808Z,84.19
2019-03-10T05:26:09.299Z,84.17
2019-03-10T05:28:43.374Z,84.06
2019-03-10T05:31:12.903Z,84.02
2019-03-10T05:33:42.419Z,83.90
2019-03-10T05:36:11.936Z,83.96
2019-03-10T05:38:41.427Z,84.07
2019-03-10T05:41:10.931Z,84.24
2019-03-10T05:43:40.456Z,84.37
2019-03-10T05:46:09.951Z,84.43
2019-03-10T05:48:39.469Z,84.62
2019-03-10T05:51:08.984Z,84.77
2019-03-10T05:53:38.518Z,84.88
2019-03-10T05:56:08.004Z,84.96
2019-03-10T05:58:37.514Z,84.88
2019-03-10T06:01:07.016Z,84.69
2019-03-10T06:03:36.523Z,84.62
2019-03-10T06:06:06.127Z,84.54
2019-03-10T06:08:35.661Z,84.41
2019-03-10T06:11:05.199Z,84.26
2019-03-10T06:13:34.720Z,84.22
2019-03-10T06:16:04.229Z,84.08
2019-03-10T06:18:33.725Z,83.63
2019-03-10T06:21:03.284Z,83.29
2019-03-10T06:23:32.747Z,83.25
2019-03-10T06:26:02.255Z,83.35
2019-03-10T06:28:31.807Z,83.45
2019-03-10T06:31:01.312Z,83.51
2019-03-10T06:33:30.817Z,83.54
2019-03-10T06:36:00.521Z,83.58
2019-03-10T06:38:30.031Z,83.56
2019-03-10T06:40:59.539Z,82.74
2019-03-10T06:43:29.182Z,80.37
2019-03-10T06:45:58.686Z,77.15
2019-03-10T06:48:28.191Z,73.77
2019-03-10T06:50:57.726Z,71.35
2019-03-10T06:53:27.231Z,69.88
2019-03-10T06:55:56.746Z,69.03
2019-03-10T06:58:26.486Z,68.51
2019-03-10T07:00:56.003Z,68.54
2019-03-10T07:03:25.626Z,68.59
2019-03-10T07:05:55.119Z,68.72
2019-03-10T07:08:24.680Z,68.92
2019-03-10T07:10:54.142Z,69.07
2019-03-10T07:13:23.829Z,69.37
2019-03-10T07:15:53.422Z,69.73
2019-03-10T07:18:23.282Z,69.82
2019-03-10T07:20:52.997Z,69.91
2019-03-10T07:23:22.489Z,69.96
2019-03-10T07:26:07.335Z,70.06
2019-03-10T07:28:54.991Z,70.14
2019-03-10T07:31:26.737Z,70.21
2019-03-10T07:34:00.660Z,70.25
2019-03-10T07:36:31.803Z,70.28
2019-03-10T07:39:19.180Z,70.38
2019-03-10T07:42:00.903Z,70.52
2019-03-10T07:44:34.805Z,70.63
2019-03-10T07:47:05.938Z,70.47
2019-03-10T07:49:37.073Z,70.26
2019-03-10T07:52:19.853Z,69.95
2019-03-10T07:54:44.042Z,69.57
2019-03-10T07:57:22.170Z,69.16
2019-03-10T07:59:51.444Z,68.70
2019-03-10T08:02:22.596Z,68.27
2019-03-10T08:05:09.904Z,67.59
2019-03-10T08:07:53.441Z,66.89
2019-03-10T08:10:40.917Z,66.23
2019-03-10T08:13:12.946Z,65.39
2019-03-10T08:15:53.156Z,64.43
2019-03-10T08:18:36.319Z,63.64
2019-03-10T08:21:09.838Z,63.10
2019-03-10T08:23:56.036Z,62.74
2019-03-10T08:26:43.695Z,62.42
2019-03-10T08:29:17.523Z,62.18
2019-03-10T08:31:51.366Z,62.01
2019-03-10T08:34:38.681Z,61.54
2019-03-10T08:37:15.414Z,60.62
2019-03-10T08:39:52.049Z,59.12
2019-03-10T08:42:23.197Z,57.97
2019-03-10T08:44:54.347Z,57.29
2019-03-10T08:47:27.908Z,57.10
2019-03-10T08:50:11.215Z,57.00
2019-03-10T08:52:48.403Z,57.00
2019-03-10T08:55:19.534Z,57.01
2019-03-10T08:58:02.628Z,57.13
2019-03-10T09:00:40.810Z,56.78
2019-03-10T09:03:21.197Z,56.76
2019-03-10T09:05:52.379Z,56.46
2019-03-10T09:08:32.538Z,56.28
2019-03-10T09:11:12.662Z,56.16
2019-03-10T09:13:49.713Z,56.20
2019-03-10T09:16:23.856Z,56.13
2019-03-10T09:19:03.662Z,56.43
2019-03-10T09:21:43.587Z,56.50
2019-03-10T09:24:24.174Z,56.63
2019-03-10T09:26:55.370Z,56.59
2019-03-10T09:29:42.661Z,56.48
2019-03-10T09:32:14.654Z,56.40
2019-03-10T09:34:45.837Z,56.31
2019-03-10T09:37:20.017Z,56.29
2019-03-10T09:39:52.114Z,56.18
2019-03-10T09:42:25.766Z,56.11
2019-03-10T09:45:13.166Z,55.97
2019-03-10T09:47:44.352Z,56.05
2019-03-10T09:50:30.960Z,56.14
2019-03-10T09:53:07.850Z,56.17
2019-03-10T09:55:39.073Z,56.18
2019-03-10T09:58:26.112Z,56.20
2019-03-10T10:00:59.821Z,56.17
2019-03-10T10:03:31.015Z,56.14
2019-03-10T10:06:02.355Z,56.10
2019-03-10T10:08:42.240Z,56.10
2019-03-10T10:11:19.559Z,56.05
2019-03-10T10:13:50.742Z,56.05
2019-03-10T10:16:33.733Z,56.12
2019-03-10T10:19:14.020Z,56.11
2019-03-10T10:21:54.246Z,56.25
2019-03-10T10:24:28.314Z,56.45
2019-03-10T10:27:05.675Z,56.42
2019-03-10T10:29:42.844Z,56.63
2019-03-10T10:32:23.182Z,56.67
2019-03-10T10:35:09.145Z,56.68
2019-03-10T10:37:40.334Z,56.72
2019-03-10T10:40:12.874Z,56.83
2019-03-10T10:42:46.555Z,57.06
2019-03-10T10:45:17.878Z,57.27
2019-03-10T10:47:49.147Z,57.45
2019-03-10T10:50:38.234Z,57.74
2019-03-10T10:53:24.341Z,58.16
2019-03-10T10:55:55.549Z,58.78
2019-03-10T10:58:35.718Z,59.55
2019-03-10T11:01:22.090Z,60.26
2019-03-10T11:04:09.654Z,60.77
2019-03-10T11:06:50.587Z,61.33
2019-03-10T11:09:24.255Z,62.12
2019-03-10T11:12:01.025Z,62.66
2019-03-10T11:14:37.936Z,63.44
2019-03-10T11:17:11.992Z,64.12
2019-03-10T11:20:00.971Z,64.79
2019-03-10T11:22:35.892Z,65.42
2019-03-10T11:25:20.176Z,66.35
2019-03-10T11:27:53.895Z,67.24
2019-03-10T11:30:27.754Z,67.82
2019-03-10T11:33:15.051Z,68.24
2019-03-10T11:35:47.361Z,68.75
2019-03-10T11:38:22.210Z,69.32
2019-03-10T11:41:05.237Z,69.72
2019-03-10T11:43:42.185Z,70.23
2019-03-10T11:46:28.052Z,70.33
2019-03-10T11:49:15.628Z,70.07
2019-03-10T11:51:55.592Z,69.82
2019-03-10T11:54:35.783Z,69.61
2019-03-10T11:57:05.294Z,69.67
2019-03-10T11:59:36.561Z,69.60
2019-03-10T12:02:27.098Z,69.01
2019-03-10T12:05:00.772Z,68.76
2019-03-10T12:07:48.165Z,68.51
2019-03-10T12:10:17.720Z,68.62
2019-03-10T12:12:47.354Z,68.42
2019-03-10T12:15:17.232Z,68.18
2019-03-10T12:17:46.772Z,67.54
2019-03-10T12:20:16.320Z,67.39
2019-03-10T12:22:45.891Z,67.44
2019-03-10T12:25:15.658Z,67.05
2019-03-10T12:27:45.197Z,67.12
2019-03-10T12:30:16.695Z,67.31
2019-03-10T12:32:46.244Z,67.25
2019-03-10T12:35:15.844Z,67.54
2019-03-10T12:37:45.487Z,67.61
2019-03-10T12:40:15.195Z,67.63
2019-03-10T12:42:45.011Z,67.43
2019-03-10T12:45:14.610Z,67.05
2019-03-10T12:47:44.152Z,66.83
2019-03-10T12:50:15.159Z,66.90
2019-03-10T12:52:44.684Z,67.14
2019-03-10T12:55:14.384Z,67.24
2019-03-10T12:57:44.028Z,67.36
2019-03-10T13:00:15.984Z,67.25
2019-03-10T13:02:45.530Z,67.80
2019-03-10T13:05:15.156Z,68.16
2019-03-10T13:07:44.691Z,68.91
2019-03-10T13:10:14.300Z,69.99
2019-03-10T13:12:44.131Z,70.99
2019-03-10T13:15:14.092Z,71.73
2019-03-10T13:17:43.620Z,72.29
2019-03-10T13:20:13.684Z,73.17
2019-03-10T13:22:43.228Z,74.17
2019-03-10T13:25:14.009Z,75.06
2019-03-10T13:27:43.587Z,75.81
2019-03-10T13:30:15.645Z,76.45
2019-03-10T13:32:45.512Z,76.86
2019-03-10T13:35:15.151Z,77.09
2019-03-10T13:37:44.780Z,77.35
2019-03-10T13:40:16.244Z,77.62
2019-03-10T13:42:46.088Z,77.81
2019-03-10T13:45:20.113Z,78.02
2019-03-10T13:47:50.012Z,78.24
2019-03-10T13:50:19.660Z,78.58
2019-03-10T13:52:49.193Z,78.96
2019-03-10T13:55:18.802Z,79.15
2019-03-10T13:57:49.357Z,79.28
2019-03-10T14:00:25.151Z,79.40
2019-03-10T14:02:54.737Z,79.57
2019-03-10T14:05:24.439Z,79.67
2019-03-10T14:07:54.158Z,80.03
2019-03-10T14:10:23.842Z,80.07
2019-03-10T14:12:53.376Z,80.14
2019-03-10T14:15:22.938Z,80.43
2019-03-10T14:17:52.476Z,80.85
2019-03-10T14:20:22.249Z,80.84
2019-03-10T14:22:51.782Z,80.84
2019-03-10T14:25:21.387Z,80.97
2019-03-10T14:27:51.028Z,80.94
2019-03-10T14:30:21.151Z,80.98
2019-03-10T14:32:50.648Z,81.21
2019-03-10T14:35:20.286Z,81.13
2019-03-10T14:37:50.003Z,81.21
2019-03-10T14:40:21.741Z,81.67
2019-03-10T14:42:51.321Z,81.99
2019-03-10T14:45:21.227Z,82.22
2019-03-10T14:47:50.845Z,82.59
2019-03-10T14:50:20.925Z,83.03
2019-03-10T14:52:50.536Z,83.41
2019-03-10T14:55:23.922Z,83.73
2019-03-10T14:57:53.472Z,84.09
2019-03-10T15:00:31.700Z,84.51
2019-03-10T15:03:01.285Z,84.68
2019-03-10T15:05:30.892Z,84.81
2019-03-10T15:08:00.476Z,84.83
2019-03-10T15:10:30.028Z,84.97
2019-03-10T15:12:59.651Z,85.03
2019-03-10T15:15:29.237Z,84.92
2019-03-10T15:17:58.797Z,84.96
2019-03-10T15:20:28.324Z,84.95
2019-03-10T15:22:57.879Z,84.89
2019-03-10T15:25:27.421Z,84.90
2019-03-10T15:27:57.029Z,84.86
2019-03-10T15:30:27.622Z,84.78
2019-03-10T15:32:57.187Z,84.81
2019-03-10T15:35:26.803Z,84.81
2019-03-10T15:37:56.420Z,84.84
2019-03-10T15:40:26.089Z,84.85
2019-03-10T15:42:55.650Z,85.02
2019-03-10T15:45:27.659Z,85.11
2019-03-10T15:47:56.503Z,85.21
2019-03-10T15:50:35.009Z,85.29
2019-03-10T15:53:04.695Z,85.41
2019-03-10T15:55:34.250Z,85.39
2019-03-10T15:58:04.230Z,85.49
2019-03-10T16:00:34.104Z,85.84
2019-03-10T16:03:03.676Z,86.29
2019-03-10T16:05:33.324Z,86.67
2019-03-10T16:08:02.860Z,87.14
2019-03-10T16:10:32.653Z,87.58
2019-03-10T16:13:02.212Z,87.99
2019-03-10T16:15:32.509Z,88.43
2019-03-10T16:18:02.051Z,88.89
2019-03-10T16:20:31.612Z,89.26
2019-03-10T16:23:01.153Z,89.55
2019-03-10T16:25:30.701Z,89.82
2019-03-10T16:28:00.258Z,90.18
2019-03-10T16:30:30.461Z,90.56
2019-03-10T16:33:00.033Z,90.86
2019-03-10T16:35:29.572Z,91.10
2019-03-10T16:37:59.172Z,91.46
2019-03-10T16:40:28.761Z,91.81
2019-03-10T16:42:58.362Z,92.14
2019-03-10T16:45:29.102Z,92.44
2019-03-10T16:47:58.654Z,92.72
2019-03-10T16:50:29.441Z,93.08
2019-03-10T16:52:59.152Z,93.42
2019-03-10T16:55:28.749Z,93.63
2019-03-10T16:57:58.347Z,93.70
2019-03-10T17:00:27.898Z,93.77
2019-03-10T17:02:57.842Z,93.82
2019-03-10T17:05:27.382Z,94.08
2019-03-10T17:07:56.946Z,94.33
2019-03-10T17:10:27.529Z,94.52
2019-03-10T17:12:57.139Z,94.73
2019-03-10T17:15:27.104Z,95.10
2019-03-10T17:17:56.631Z,95.43
2019-03-10T17:20:26.299Z,95.66
2019-03-10T17:22:55.898Z,95.88
2019-03-10T17:25:25.579Z,96.05
2019-03-10T17:27:55.093Z,96.17
2019-03-10T17:30:25.845Z,96.44
2019-03-10T17:32:55.468Z,96.66
2019-03-10T17:35:25.107Z,96.80
2019-03-10T17:37:54.674Z,96.89
2019-03-10T17:40:27.513Z,97.03
2019-03-10T17:42:57.095Z,97.20
2019-03-10T17:45:27.483Z,97.32
2019-03-10T17:47:57.027Z,97.45
2019-03-10T17:50:26.674Z,97.33
2019-03-10T17:52:56.241Z,97.51
2019-03-10T17:55:26.661Z,97.58
2019-03-10T17:57:56.284Z,97.63
2019-03-10T18:00:27.570Z,97.56
2019-03-10T18:02:57.109Z,97.73
2019-03-10T18:05:26.666Z,97.96
2019-03-10T18:07:56.250Z,98.13
2019-03-10T18:10:25.789Z,98.29
2019-03-10T18:12:55.421Z,98.33
2019-03-10T18:15:25.069Z,98.42
2019-03-10T18:17:54.696Z,98.36
2019-03-10T18:20:25.081Z,98.50
2019-03-10T18:22:54.614Z,98.75
2019-03-10T18:25:24.171Z,98.96
2019-03-10T18:27:53.724Z,99.14
2019-03-10T18:30:27.651Z,99.26
2019-03-10T18:32:57.184Z,99.40
2019-03-10T18:35:26.907Z,99.66
2019-03-10T18:37:56.447Z,99.85
2019-03-10T18:40:29.553Z,99.86
2019-03-10T18:42:59.089Z,100.00
2019-03-10T18:45:28.628Z,100.00
2019-03-10T18:47:58.185Z,100.00
2019-03-10T18:50:28.760Z,100.00
2019-03-10T18:52:58.328Z,100.00
2019-03-10T18:55:27.879Z,100.00
2019-03-10T18:57:57.439Z,100.00
2019-03-10T19:00:32.445Z,100.00
2019-03-10T19:03:02.061Z,100.00
2019-03-10T19:05:31.618Z,100.00
2019-03-10T19:08:01.158Z,100.00
2019-03-10T19:10:30.853Z,100.00
2019-03-10T19:13:00.412Z,100.00
2019-03-10T19:15:30.263Z,100.00
2019-03-10T19:18:00.181Z,100.00
2019-03-10T19:20:29.977Z,100.00
2019-03-10T19:22:59.829Z,100.00
2019-03-10T19:25:29.652Z,100.00
2019-03-10T19:27:59.500Z,100.00
2019-03-10T19:30:29.059Z,100.00
2019-03-10T19:32:58.681Z,100.00
2019-03-10T19:35:28.256Z,100.00
2019-03-10T19:37:57.817Z,100.00
2019-03-10T19:40:27.559Z,100.00
2019-03-10T19:42:57.298Z,100.00
2019-03-10T19:45:26.918Z,100.00
2019-03-10T19:47:56.756Z,100.00
2019-03-10T19:50:28.319Z,100.00
2019-03-10T19:52:58.115Z,100.00
2019-03-10T19:55:27.692Z,100.00
2019-03-10T19:57:57.239Z,100.00
2019-03-10T20:00:26.808Z,100.00
2019-03-10T20:02:56.354Z,100.00
2019-03-10T20:05:25.900Z,100.00
2019-03-10T20:07:55.481Z,100.00
2019-03-10T20:10:25.394Z,100.00
2019-03-10T20:12:55.375Z,100.00
2019-03-10T20:15:26.728Z,100.00
2019-03-10T20:17:56.276Z,100.00
2019-03-10T20:20:35.872Z,100.00
2019-03-10T20:23:05.733Z,100.00
2019-03-10T20:25:37.030Z,100.00
2019-03-10T20:28:09.108Z,100.00
2019-03-10T20:30:37.941Z,100.00
2019-03-10T20:33:07.693Z,100.00
2019-03-10T20:35:37.251Z,100.00
2019-03-10T20:38:06.855Z,100.00
2019-03-10T20:40:36.425Z,100.00
2019-03-10T20:43:06.075Z,100.00
2019-03-10T20:45:35.781Z,100.00
2019-03-10T20:48:05.410Z,100.00
2019-03-10T20:50:35.085Z,100.00
2019-03-10T20:53:04.630Z,100.00
2019-03-10T20:55:34.168Z,100.00
2019-03-10T20:58:03.737Z,100.00
2019-03-10T21:00:33.271Z,100.00
2019-03-10T21:03:02.862Z,100.00
2019-03-10T21:05:32.493Z,100.00
2019-03-10T21:08:02.047Z,100.00
2019-03-10T21:10:31.618Z,100.00
2019-03-10T21:13:01.193Z,100.00
2019-03-10T21:15:30.869Z,100.00
2019-03-10T21:18:00.543Z,100.00
2019-03-10T21:20:30.149Z,100.00
2019-03-10T21:23:00.111Z,100.00
2019-03-10T21:25:32.030Z,100.00
2019-03-10T21:28:01.744Z,100.00
2019-03-10T21:30:37.365Z,100.00
2019-03-10T21:33:07.075Z,100.00
2019-03-10T21:35:36.651Z,100.00
2019-03-10T21:38:06.277Z,100.00
2019-03-10T21:40:36.347Z,100.00
2019-03-10T21:43:06.555Z,100.00
2019-03-10T21:45:36.150Z,100.00
2019-03-10T21:48:05.886Z,100.00
2019-03-10T21:50:35.426Z,100.00
2019-03-10T21:53:05.347Z,100.00
2019-03-10T21:55:34.890Z,100.00
2019-03-10T21:58:04.444Z,100.00
2019-03-10T22:00:34.010Z,100.00
2019-03-10T22:03:03.561Z,100.00
2019-03-10T22:05:33.155Z,100.00
2019-03-10T22:08:02.704Z,100.00
2019-03-10T22:10:32.276Z,100.00
2019-03-10T22:13:01.839Z,100.00
2019-03-10T22:15:41.082Z,100.00
2019-03-10T22:18:02.994Z,100.00
2019-03-10T22:20:32.717Z,100.00
2019-03-10T22:23:02.378Z,100.00
2019-03-10T22:25:31.912Z,100.00
2019-03-10T22:28:01.450Z,100.00
2019-03-10T22:30:31.030Z,100.00
2019-03-10T22:33:00.572Z,100.00
2019-03-10T22:35:30.122Z,100.00
2019-03-10T22:37:59.784Z,100.00
2019-03-10T22:40:29.390Z,100.00
2019-03-10T22:42:58.931Z,100.00
2019-03-10T22:45:28.488Z,100.00
2019-03-10T22:47:58.054Z,100.00
2019-03-10T22:50:27.690Z,100.00
2019-03-10T22:52:57.223Z,100.00
2019-03-10T22:55:26.796Z,100.00
2019-03-10T22:57:56.344Z,100.00
2019-03-10T23:00:39.705Z,100.00
2019-03-10T23:03:09.266Z,100.00
2019-03-10T23:05:41.380Z,100.00
2019-03-10T23:08:10.101Z,100.00
2019-03-10T23:10:39.667Z,100.00
2019-03-10T23:13:09.676Z,100.00
2019-03-10T23:15:39.209Z,100.00
2019-03-10T23:18:08.742Z,100.00
2019-03-10T23:20:38.683Z,100.00
2019-03-10T23:23:08.241Z,100.00
2019-03-10T23:25:37.819Z,100.00
2019-03-10T23:28:07.384Z,100.00
2019-03-10T23:30:36.997Z,100.00
2019-03-10T23:33:06.546Z,100.00
2019-03-10T23:35:36.139Z,100.00
2019-03-10T23:38:05.856Z,100.00
2019-03-10T23:40:35.409Z,100.00
2019-03-10T23:43:05.042Z,100.00
2019-03-10T23:45:34.587Z,100.00
2019-03-10T23:48:04.165Z,100.00
2019-03-10T23:50:33.708Z,100.00
2019-03-10T23:53:03.281Z,100.00
2019-03-10T23:55:32.904Z,100.00
2019-03-10T23:58:02.436Z,100.00
